sensor_id;sensor_type;location;lat;lon;timestamp;pressure;altitude;pressure_sealevel;temperature;humidity
71043;BME280;58696;52.134;5.500;2022-11-15T00:01:15;100836.22;;;5.79;100.00
71043;BME280;58696;52.134;5.500;2022-11-15T00:03:43;100830.25;;;5.81;100.00
71043;BME280;58696;52.134;5.500;2022-11-15T00:06:11;100831.09;;;5.81;100.00
71043;BME280;58696;52.134;5.500;2022-11-15T00:08:38;100839.78;;;5.82;100.00
71043;BME280;58696;52.134;5.500;2022-11-15T00:11:05;100844.13;;;5.83;100.00
71043;BME280;58696;52.134;5.500;2022-11-15T00:13:31;100839.78;;;5.82;100.00
71043;BME280;58696;52.134;5.500;2022-11-15T00:16:00;100832.91;;;5.82;100.00
71043;BME280;58696;52.134;5.500;2022-11-15T00:18:27;100836.34;;;5.83;100.00
71043;BME280;58696;52.134;5.500;2022-11-15T00:20:56;100835.53;;;5.84;100.00
71043;BME280;58696;52.134;5.500;2022-11-15T00:23:23;100830.38;;;5.85;100.00
71043;BME280;58696;52.134;5.500;2022-11-15T00:25:57;100820.84;;;5.84;100.00
71043;BME280;58696;52.134;5.500;2022-11-15T00:28:24;100824.41;;;5.86;100.00
71043;BME280;58696;52.134;5.500;2022-11-15T00:30:51;100817.41;;;5.85;100.00
71043;BME280;58696;52.134;5.500;2022-11-15T00:33:18;100820.06;;;5.87;100.00
71043;BME280;58696;52.134;5.500;2022-11-15T00:35:47;100815.78;;;5.87;100.00
71043;BME280;58696;52.134;5.500;2022-11-15T00:38:13;100818.44;;;5.89;100.00
71043;BME280;58696;52.134;5.500;2022-11-15T00:40:41;100816.69;;;5.89;100.00
71043;BME280;58696;52.134;5.500;2022-11-15T00:43:08;100825.50;;;5.93;100.00
71043;BME280;58696;52.134;5.500;2022-11-15T00:45:37;100823.81;;;5.95;100.00
71043;BME280;58696;52.134;5.500;2022-11-15T00:48:04;100827.41;;;5.99;100.00
71043;BME280;58696;52.134;5.500;2022-11-15T00:50:31;100826.59;;;6.00;100.00
71043;BME280;58696;52.134;5.500;2022-11-15T00:52:58;100817.09;;;6.00;100.00
71043;BME280;58696;52.134;5.500;2022-11-15T00:55:25;100818.03;;;6.02;100.00
71043;BME280;58696;52.134;5.500;2022-11-15T00:57:54;100812.06;;;6.03;100.00
71043;BME280;58696;52.134;5.500;2022-11-15T01:00:24;100811.28;;;6.06;100.00
71043;BME280;58696;52.134;5.500;2022-11-15T01:02:54;100806.94;;;6.07;100.00
71043;BME280;58696;52.134;5.500;2022-11-15T01:05:21;100801.88;;;6.10;100.00
71043;BME280;58696;52.134;5.500;2022-11-15T01:07:57;100798.44;;;6.11;100.00
71043;BME280;58696;52.134;5.500;2022-11-15T01:10:23;100794.25;;;6.14;100.00
71043;BME280;58696;52.134;5.500;2022-11-15T01:12:54;100790.94;;;6.18;100.00
71043;BME280;58696;52.134;5.500;2022-11-15T01:15:20;100794.41;;;6.19;100.00
71043;BME280;58696;52.134;5.500;2022-11-15T01:17:49;100791.03;;;6.22;100.00
71043;BME280;58696;52.134;5.500;2022-11-15T01:20:18;100783.31;;;6.23;100.00
71043;BME280;58696;52.134;5.500;2022-11-15T01:22:45;100781.63;;;6.25;100.00
71043;BME280;58696;52.134;5.500;2022-11-15T01:25:12;100776.56;;;6.28;100.00
71043;BME280;58696;52.134;5.500;2022-11-15T01:27:40;100764.50;;;6.30;100.00
71043;BME280;58696;52.134;5.500;2022-11-15T01:30:07;100782.75;;;6.34;100.00
71043;BME280;58696;52.134;5.500;2022-11-15T01:32:34;100776.78;;;6.36;100.00
71043;BME280;58696;52.134;5.500;2022-11-15T01:35:01;100771.66;;;6.38;100.00
71043;BME280;58696;52.134;5.500;2022-11-15T01:37:27;100765.66;;;6.40;100.00
71043;BME280;58696;52.134;5.500;2022-11-15T01:39:54;100774.47;;;6.44;100.00
71043;BME280;58696;52.134;5.500;2022-11-15T01:42:21;100763.22;;;6.45;100.00
71043;BME280;58696;52.134;5.500;2022-11-15T01:44:50;100773.72;;;6.48;100.00
71043;BME280;58696;52.134;5.500;2022-11-15T01:47:39;100768.63;;;6.51;100.00
71043;BME280;58696;52.134;5.500;2022-11-15T01:50:13;100761.72;;;6.52;100.00
71043;BME280;58696;52.134;5.500;2022-11-15T01:52:41;100762.72;;;6.55;100.00
71043;BME280;58696;52.134;5.500;2022-11-15T01:55:09;100768.81;;;6.57;100.00
71043;BME280;58696;52.134;5.500;2022-11-15T01:57:38;100758.47;;;6.59;100.00
71043;BME280;58696;52.134;5.500;2022-11-15T02:00:07;100760.28;;;6.62;100.00
71043;BME280;58696;52.134;5.500;2022-11-15T02:02:35;100750.00;;;6.65;100.00
71043;BME280;58696;52.134;5.500;2022-11-15T02:05:03;100749.22;;;6.67;100.00
71043;BME280;58696;52.134;5.500;2022-11-15T02:07:31;100763.19;;;6.71;100.00
71043;BME280;58696;52.134;5.500;2022-11-15T02:10:04;100748.53;;;6.73;100.00
71043;BME280;58696;52.134;5.500;2022-11-15T02:12:33;100743.34;;;6.73;100.00
71043;BME280;58696;52.134;5.500;2022-11-15T02:15:00;100746.97;;;6.78;100.00
71043;BME280;58696;52.134;5.500;2022-11-15T02:26:30;100726.47;;;6.88;100.00
71043;BME280;58696;52.134;5.500;2022-11-15T02:31:51;100725.81;;;6.95;100.00
71043;BME280;58696;52.134;5.500;2022-11-15T02:34:50;100716.44;;;7.00;100.00
71043;BME280;58696;52.134;5.500;2022-11-15T02:40:41;100707.97;;;7.07;100.00
71043;BME280;58696;52.134;5.500;2022-11-15T02:43:15;100695.94;;;7.10;100.00
71043;BME280;58696;52.134;5.500;2022-11-15T02:46:12;100697.88;;;7.17;100.00
71043;BME280;58696;52.134;5.500;2022-11-15T02:48:41;100699.78;;;7.24;100.00
71043;BME280;58696;52.134;5.500;2022-11-15T02:51:09;100693.00;;;7.29;100.00
71043;BME280;58696;52.134;5.500;2022-11-15T02:53:36;100693.97;;;7.33;100.00
71043;BME280;58696;52.134;5.500;2022-11-15T02:56:03;100689.75;;;7.37;100.00
71043;BME280;58696;52.134;5.500;2022-11-15T03:04:28;100672.69;;;7.48;100.00
71043;BME280;58696;52.134;5.500;2022-11-15T03:07:18;100669.34;;;7.52;100.00
71043;BME280;58696;52.134;5.500;2022-11-15T03:10:10;100660.78;;;7.56;100.00
71043;BME280;58696;52.134;5.500;2022-11-15T03:12:57;100661.78;;;7.62;100.00
71043;BME280;58696;52.134;5.500;2022-11-15T03:18:04;100660.28;;;7.71;100.00
71043;BME280;58696;52.134;5.500;2022-11-15T03:20:34;100669.09;;;7.77;100.00
71043;BME280;58696;52.134;5.500;2022-11-15T03:23:08;100673.56;;;7.82;100.00
71043;BME280;58696;52.134;5.500;2022-11-15T03:25:40;100675.41;;;7.87;100.00
71043;BME280;58696;52.134;5.500;2022-11-15T03:28:15;100678.16;;;7.93;100.00
71043;BME280;58696;52.134;5.500;2022-11-15T03:30:43;100680.94;;;7.99;100.00
71043;BME280;58696;52.134;5.500;2022-11-15T03:33:13;100675.81;;;8.04;100.00
71043;BME280;58696;52.134;5.500;2022-11-15T03:35:43;100681.16;;;8.08;100.00
71043;BME280;58696;52.134;5.500;2022-11-15T03:38:22;100687.34;;;8.14;100.00
71043;BME280;58696;52.134;5.500;2022-11-15T03:41:16;100680.53;;;8.19;100.00
71043;BME280;58696;52.134;5.500;2022-11-15T03:44:32;100690.22;;;8.24;100.00
71043;BME280;58696;52.134;5.500;2022-11-15T03:46:47;100678.16;;;8.28;100.00
71043;BME280;58696;52.134;5.500;2022-11-15T03:49:25;100687.78;;;8.32;100.00
71043;BME280;58696;52.134;5.500;2022-11-15T03:51:57;100678.28;;;8.34;100.00
71043;BME280;58696;52.134;5.500;2022-11-15T03:54:25;100687.09;;;8.40;100.00
71043;BME280;58696;52.134;5.500;2022-11-15T03:56:52;100680.22;;;8.43;100.00
71043;BME280;58696;52.134;5.500;2022-11-15T03:59:18;100677.69;;;8.46;100.00
71043;BME280;58696;52.134;5.500;2022-11-15T04:01:45;100673.44;;;8.50;100.00
71043;BME280;58696;52.134;5.500;2022-11-15T04:04:12;100675.31;;;8.54;100.00
71043;BME280;58696;52.134;5.500;2022-11-15T04:06:39;100667.53;;;8.57;100.00
71043;BME280;58696;52.134;5.500;2022-11-15T04:09:09;100681.56;;;8.62;100.00
71043;BME280;58696;52.134;5.500;2022-11-15T04:11:35;100671.22;;;8.66;100.00
71043;BME280;58696;52.134;5.500;2022-11-15T04:14:02;100666.00;;;8.66;100.00
71043;BME280;58696;52.134;5.500;2022-11-15T04:16:31;100673.94;;;8.72;100.00
71043;BME280;58696;52.134;5.500;2022-11-15T04:19:00;100672.28;;;8.75;100.00
71043;BME280;58696;52.134;5.500;2022-11-15T04:21:46;100680.16;;;8.79;100.00
71043;BME280;58696;52.134;5.500;2022-11-15T04:24:34;100668.91;;;8.81;100.00
71043;BME280;58696;52.134;5.500;2022-11-15T04:27:01;100663.69;;;8.81;100.00
71043;BME280;58696;52.134;5.500;2022-11-15T04:29:28;100658.59;;;8.86;100.00
71043;BME280;58696;52.134;5.500;2022-11-15T04:32:02;100657.72;;;8.87;100.00
71043;BME280;58696;52.134;5.500;2022-11-15T04:34:29;100656.13;;;8.92;100.00
71043;BME280;58696;52.134;5.500;2022-11-15T04:36:56;100657.88;;;8.93;100.00
71043;BME280;58696;52.134;5.500;2022-11-15T04:39:42;100657.91;;;8.95;100.00
71043;BME280;58696;52.134;5.500;2022-11-15T04:42:10;100662.22;;;8.94;100.00
71043;BME280;58696;52.134;5.500;2022-11-15T04:44:36;100665.75;;;8.96;100.00
71043;BME280;58696;52.134;5.500;2022-11-15T04:47:03;100662.25;;;8.96;100.00
71043;BME280;58696;52.134;5.500;2022-11-15T04:49:30;100666.66;;;8.98;100.00
71043;BME280;58696;52.134;5.500;2022-11-15T04:51:57;100658.84;;;8.98;100.00
71043;BME280;58696;52.134;5.500;2022-11-15T04:54:24;100655.44;;;9.01;100.00
71043;BME280;58696;52.134;5.500;2022-11-15T04:56:51;100662.44;;;9.04;100.00
71043;BME280;58696;52.134;5.500;2022-11-15T04:59:17;100657.25;;;9.05;100.00
71043;BME280;58696;52.134;5.500;2022-11-15T05:01:44;100652.94;;;9.07;100.00
71043;BME280;58696;52.134;5.500;2022-11-15T05:04:11;100655.53;;;9.07;100.00
71043;BME280;58696;52.134;5.500;2022-11-15T05:06:51;100658.19;;;9.09;100.00
71043;BME280;58696;52.134;5.500;2022-11-15T05:09:19;100656.47;;;9.09;100.00
71043;BME280;58696;52.134;5.500;2022-11-15T05:11:46;100647.78;;;9.10;100.00
71043;BME280;58696;52.134;5.500;2022-11-15T05:14:14;100660.88;;;9.13;100.00
71043;BME280;58696;52.134;5.500;2022-11-15T05:16:41;100661.78;;;9.16;100.00
71043;BME280;58696;52.134;5.500;2022-11-15T05:19:09;100666.16;;;9.18;100.00
71043;BME280;58696;52.134;5.500;2022-11-15T05:21:37;100660.13;;;9.19;100.00
71043;BME280;58696;52.134;5.500;2022-11-15T05:24:05;100667.13;;;9.22;100.00
71043;BME280;58696;52.134;5.500;2022-11-15T05:26:34;100661.88;;;9.20;100.00
71043;BME280;58696;52.134;5.500;2022-11-15T05:29:01;100657.56;;;9.21;100.00
71043;BME280;58696;52.134;5.500;2022-11-15T05:31:27;100667.06;;;9.19;100.00
71043;BME280;58696;52.134;5.500;2022-11-15T05:33:55;100668.78;;;9.18;100.00
71043;BME280;58696;52.134;5.500;2022-11-15T05:36:38;100668.84;;;9.21;100.00
71043;BME280;58696;52.134;5.500;2022-11-15T05:39:08;100667.19;;;9.25;100.00
71043;BME280;58696;52.134;5.500;2022-11-15T05:41:48;100660.19;;;9.24;100.00
71043;BME280;58696;52.134;5.500;2022-11-15T05:44:21;100666.41;;;9.29;100.00
71043;BME280;58696;52.134;5.500;2022-11-15T05:46:50;100666.41;;;9.29;100.00
71043;BME280;58696;52.134;5.500;2022-11-15T05:49:29;100673.44;;;9.33;100.00
71043;BME280;58696;52.134;5.500;2022-11-15T05:51:56;100670.03;;;9.37;100.00
71043;BME280;58696;52.134;5.500;2022-11-15T05:54:25;100680.50;;;9.39;100.00
71043;BME280;58696;52.134;5.500;2022-11-15T05:56:54;100677.06;;;9.42;100.00
71043;BME280;58696;52.134;5.500;2022-11-15T05:59:24;100670.97;;;9.43;100.00
71043;BME280;58696;52.134;5.500;2022-11-15T06:01:52;100684.09;;;9.46;100.00
71043;BME280;58696;52.134;5.500;2022-11-15T06:04:19;100681.53;;;9.49;100.00
71043;BME280;58696;52.134;5.500;2022-11-15T06:06:46;100673.72;;;9.49;100.00
71043;BME280;58696;52.134;5.500;2022-11-15T06:09:13;100686.75;;;9.49;100.00
71043;BME280;58696;52.134;5.500;2022-11-15T06:11:41;100687.66;;;9.51;100.00
71043;BME280;58696;52.134;5.500;2022-11-15T06:14:08;100684.25;;;9.55;100.00
71043;BME280;58696;52.134;5.500;2022-11-15T06:16:35;100679.03;;;9.55;100.00
71043;BME280;58696;52.134;5.500;2022-11-15T06:19:02;100680.81;;;9.56;100.00
71043;BME280;58696;52.134;5.500;2022-11-15T06:21:30;100690.44;;;9.59;100.00
71043;BME280;58696;52.134;5.500;2022-11-15T06:23:57;100683.44;;;9.59;100.00
71043;BME280;58696;52.134;5.500;2022-11-15T06:26:24;100686.09;;;9.61;100.00
71043;BME280;58696;52.134;5.500;2022-11-15T06:28:51;100692.22;;;9.63;100.00
71043;BME280;58696;52.134;5.500;2022-11-15T06:31:18;100694.88;;;9.64;100.00
71043;BME280;58696;52.134;5.500;2022-11-15T06:33:47;100696.63;;;9.65;100.00
71043;BME280;58696;52.134;5.500;2022-11-15T06:36:16;100705.38;;;9.68;100.00
71043;BME280;58696;52.134;5.500;2022-11-15T06:38:44;100700.16;;;9.69;100.00
71043;BME280;58696;52.134;5.500;2022-11-15T06:41:12;100703.66;;;9.70;100.00
71043;BME280;58696;52.134;5.500;2022-11-15T06:43:40;100695.03;;;9.74;100.00
71043;BME280;58696;52.134;5.500;2022-11-15T06:46:07;100697.63;;;9.74;100.00
71043;BME280;58696;52.134;5.500;2022-11-15T06:48:35;100705.47;;;9.74;100.00
71043;BME280;58696;52.134;5.500;2022-11-15T06:51:03;100703.72;;;9.73;100.00
71043;BME280;58696;52.134;5.500;2022-11-15T06:53:31;100703.72;;;9.73;100.00
71043;BME280;58696;52.134;5.500;2022-11-15T06:56:01;100700.16;;;9.69;100.00
71043;BME280;58696;52.134;5.500;2022-11-15T06:58:31;100715.00;;;9.73;100.00
71043;BME280;58696;52.134;5.500;2022-11-15T07:00:59;100701.06;;;9.71;100.00
71043;BME280;58696;52.134;5.500;2022-11-15T07:03:28;100711.53;;;9.71;100.00
71043;BME280;58696;52.134;5.500;2022-11-15T07:05:57;100719.34;;;9.71;100.00
71043;BME280;58696;52.134;5.500;2022-11-15T07:08:32;100711.47;;;9.70;100.00
71043;BME280;58696;52.134;5.500;2022-11-15T07:11:05;100722.84;;;9.72;100.00
71043;BME280;58696;52.134;5.500;2022-11-15T07:13:35;100728.94;;;9.74;100.00
71043;BME280;58696;52.134;5.500;2022-11-15T07:16:04;100726.34;;;9.74;100.00
71043;BME280;58696;52.134;5.500;2022-11-15T07:18:37;100715.03;;;9.72;100.00
71043;BME280;58696;52.134;5.500;2022-11-15T07:21:08;100717.66;;;9.75;100.00
71043;BME280;58696;52.134;5.500;2022-11-15T07:23:36;100724.66;;;9.76;100.00
71043;BME280;58696;52.134;5.500;2022-11-15T07:26:05;100720.31;;;9.76;100.00
71043;BME280;58696;52.134;5.500;2022-11-15T07:28:34;100722.91;;;9.76;100.00
71043;BME280;58696;52.134;5.500;2022-11-15T07:31:06;100727.28;;;9.76;100.00
71043;BME280;58696;52.134;5.500;2022-11-15T07:33:35;100730.78;;;9.78;100.00
71043;BME280;58696;52.134;5.500;2022-11-15T07:36:04;100733.38;;;9.78;100.00
71043;BME280;58696;52.134;5.500;2022-11-15T07:38:33;100733.38;;;9.78;100.00
71043;BME280;58696;52.134;5.500;2022-11-15T07:41:08;100727.31;;;9.77;100.00
71043;BME280;58696;52.134;5.500;2022-11-15T07:43:35;100729.91;;;9.79;100.00
71043;BME280;58696;52.134;5.500;2022-11-15T07:46:04;100734.31;;;9.80;100.00
71043;BME280;58696;52.134;5.500;2022-11-15T07:48:31;100728.22;;;9.81;100.00
71043;BME280;58696;52.134;5.500;2022-11-15T07:51:15;100723.00;;;9.81;100.00
71043;BME280;58696;52.134;5.500;2022-11-15T07:53:43;100729.13;;;9.85;100.00
71043;BME280;58696;52.134;5.500;2022-11-15T07:56:12;100731.81;;;9.88;100.00
71043;BME280;58696;52.134;5.500;2022-11-15T07:58:39;100724.03;;;9.91;100.00
71043;BME280;58696;52.134;5.500;2022-11-15T08:01:09;100716.25;;;9.93;100.00
71043;BME280;58696;52.134;5.500;2022-11-15T08:03:43;100710.19;;;9.95;100.00
71043;BME280;58696;52.134;5.500;2022-11-15T08:06:10;100709.34;;;9.98;100.00
71043;BME280;58696;52.134;5.500;2022-11-15T08:08:38;100710.22;;;9.97;100.00
71043;BME280;58696;52.134;5.500;2022-11-15T08:11:05;100709.34;;;9.98;100.00
71043;BME280;58696;52.134;5.500;2022-11-15T08:13:32;100715.50;;;10.00;100.00
71043;BME280;58696;52.134;5.500;2022-11-15T08:16:01;100711.06;;;9.96;100.00
71043;BME280;58696;52.134;5.500;2022-11-15T08:18:29;100706.78;;;9.99;100.00
71043;BME280;58696;52.134;5.500;2022-11-15T08:21:00;100712.03;;;10.01;100.00
71043;BME280;58696;52.134;5.500;2022-11-15T08:23:28;100712.06;;;10.02;100.00
71043;BME280;58696;52.134;5.500;2022-11-15T08:26:03;100718.19;;;10.06;100.00
71043;BME280;58696;52.134;5.500;2022-11-15T08:28:30;100717.41;;;10.09;100.00
71043;BME280;58696;52.134;5.500;2022-11-15T08:30:58;100715.69;;;10.12;100.00
71043;BME280;58696;52.134;5.500;2022-11-15T08:33:25;100720.06;;;10.13;100.00
71043;BME280;58696;52.134;5.500;2022-11-15T08:35:55;100717.44;;;10.13;100.00
71043;BME280;58696;52.134;5.500;2022-11-15T08:38:22;100712.22;;;10.13;100.00
71043;BME280;58696;52.134;5.500;2022-11-15T08:40:51;100709.63;;;10.13;100.00
71043;BME280;58696;52.134;5.500;2022-11-15T08:43:21;100707.88;;;10.12;100.00
71043;BME280;58696;52.134;5.500;2022-11-15T08:45:47;100707.06;;;10.16;100.00
71043;BME280;58696;52.134;5.500;2022-11-15T08:48:14;100701.88;;;10.18;100.00
71043;BME280;58696;52.134;5.500;2022-11-15T08:50:41;100696.66;;;10.20;100.00
71043;BME280;58696;52.134;5.500;2022-11-15T08:53:10;100703.72;;;10.25;100.00
71043;BME280;58696;52.134;5.500;2022-11-15T08:55:38;100695.94;;;10.30;100.00
71043;BME280;58696;52.134;5.500;2022-11-15T08:58:05;100685.66;;;10.39;100.00
71043;BME280;58696;52.134;5.500;2022-11-15T09:00:33;100692.81;;;10.50;100.00
71043;BME280;58696;52.134;5.500;2022-11-15T09:03:03;100688.56;;;10.58;100.00
71043;BME280;58696;52.134;5.500;2022-11-15T09:05:32;100682.53;;;10.62;100.00
71043;BME280;58696;52.134;5.500;2022-11-15T09:08:02;100684.28;;;10.63;100.00
71043;BME280;58696;52.134;5.500;2022-11-15T09:10:51;100678.25;;;10.69;100.00
71043;BME280;58696;52.134;5.500;2022-11-15T09:13:18;100681.94;;;10.87;100.00
71043;BME280;58696;52.134;5.500;2022-11-15T09:15:44;100679.00;;;11.30;100.00
71043;BME280;58696;52.134;5.500;2022-11-15T09:18:14;100672.25;;;11.52;100.00
71043;BME280;58696;52.134;5.500;2022-11-15T09:20:42;100681.84;;;11.52;100.00
71043;BME280;58696;52.134;5.500;2022-11-15T09:23:09;100679.06;;;11.38;100.00
71043;BME280;58696;52.134;5.500;2022-11-15T09:25:36;100675.44;;;11.23;100.00
71043;BME280;58696;52.134;5.500;2022-11-15T09:28:06;100668.34;;;11.13;100.00
71043;BME280;58696;52.134;5.500;2022-11-15T09:30:33;100664.81;;;11.09;100.00
71043;BME280;58696;52.134;5.500;2022-11-15T09:33:07;100664.88;;;11.17;100.00
71043;BME280;58696;52.134;5.500;2022-11-15T09:35:35;100680.56;;;11.15;100.00
71043;BME280;58696;52.134;5.500;2022-11-15T09:38:03;100670.00;;;11.06;100.00
71043;BME280;58696;52.134;5.500;2022-11-15T09:40:31;100667.28;;;10.98;100.00
71043;BME280;58696;52.134;5.500;2022-11-15T09:48:29;100661.09;;;10.90;100.00
71043;BME280;58696;52.134;5.500;2022-11-15T09:51:03;100660.97;;;10.80;100.00
71043;BME280;58696;52.134;5.500;2022-11-15T09:53:49;100669.69;;;10.79;100.00
71043;BME280;58696;52.134;5.500;2022-11-15T09:56:43;100651.81;;;11.17;100.00
71043;BME280;58696;52.134;5.500;2022-11-15T10:04:42;100657.25;;;12.41;100.00
71043;BME280;58696;52.134;5.500;2022-11-15T10:07:21;100653.81;;;12.44;99.93
71043;BME280;58696;52.134;5.500;2022-11-15T10:09:58;100647.72;;;12.50;98.77
71043;BME280;58696;52.134;5.500;2022-11-15T10:12:30;100646.63;;;12.16;98.04
71043;BME280;58696;52.134;5.500;2022-11-15T10:15:05;100645.53;;;11.89;98.31
71043;BME280;58696;52.134;5.500;2022-11-15T10:23:24;100635.09;;;11.95;99.71
71043;BME280;58696;52.134;5.500;2022-11-15T10:26:00;100643.97;;;12.07;99.39
71043;BME280;58696;52.134;5.500;2022-11-15T10:28:32;100643.06;;;12.06;98.68
71043;BME280;58696;52.134;5.500;2022-11-15T10:31:00;100640.38;;;12.02;98.75
71043;BME280;58696;52.134;5.500;2022-11-15T10:33:34;100630.78;;;12.02;98.45
71043;BME280;58696;52.134;5.500;2022-11-15T10:49:29;100613.75;;;12.74;89.89
71043;BME280;58696;52.134;5.500;2022-11-15T10:51:57;100605.81;;;12.59;90.22
71043;BME280;58696;52.134;5.500;2022-11-15T10:54:37;100607.53;;;12.52;90.15
71043;BME280;58696;52.134;5.500;2022-11-15T10:57:14;100603.91;;;12.31;90.33
71043;BME280;58696;52.134;5.500;2022-11-15T11:02:45;100591.84;;;12.60;89.38
71043;BME280;58696;52.134;5.500;2022-11-15T11:05:30;100594.50;;;12.76;88.43
71043;BME280;58696;52.134;5.500;2022-11-15T11:10:38;100570.97;;;13.04;87.64
71043;BME280;58696;52.134;5.500;2022-11-15T11:24:47;100578.06;;;13.73;80.91
71043;BME280;58696;52.134;5.500;2022-11-15T11:30:12;100568.44;;;13.89;80.61
71043;BME280;58696;52.134;5.500;2022-11-15T11:35:32;100564.91;;;13.37;81.46
71043;BME280;58696;52.134;5.500;2022-11-15T11:41:53;100567.50;;;13.08;82.86
71043;BME280;58696;52.134;5.500;2022-11-15T11:49:46;100545.50;;;12.54;84.01
71043;BME280;58696;52.134;5.500;2022-11-15T11:52:29;100549.84;;;12.47;84.56
71043;BME280;58696;52.134;5.500;2022-11-15T12:00:26;100530.66;;;12.55;84.65
71043;BME280;58696;52.134;5.500;2022-11-15T12:05:41;100526.31;;;12.63;84.69
71043;BME280;58696;52.134;5.500;2022-11-15T12:08:40;100517.59;;;12.80;84.69
71043;BME280;58696;52.134;5.500;2022-11-15T12:13:57;100507.16;;;12.88;82.96
71043;BME280;58696;52.134;5.500;2022-11-15T12:16:29;100505.41;;;12.85;83.22
71043;BME280;58696;52.134;5.500;2022-11-15T12:19:03;100500.09;;;12.74;81.97
71043;BME280;58696;52.134;5.500;2022-11-15T12:21:42;100491.34;;;12.59;81.82
71043;BME280;58696;52.134;5.500;2022-11-15T12:24:34;100492.16;;;12.43;81.87
71043;BME280;58696;52.134;5.500;2022-11-15T12:27:17;100494.75;;;12.35;82.32
71043;BME280;58696;52.134;5.500;2022-11-15T12:29:54;100482.50;;;12.28;81.80
71043;BME280;58696;52.134;5.500;2022-11-15T12:32:34;100472.00;;;12.21;81.46
71043;BME280;58696;52.134;5.500;2022-11-15T12:35:05;100466.75;;;12.15;80.57
71043;BME280;58696;52.134;5.500;2022-11-15T12:40:28;100452.75;;;12.07;80.62
71043;BME280;58696;52.134;5.500;2022-11-15T12:45:44;100449.25;;;12.09;81.12
71043;BME280;58696;52.134;5.500;2022-11-15T12:50:54;100443.09;;;12.06;81.67
71043;BME280;58696;52.134;5.500;2022-11-15T12:58:48;100429.19;;;12.08;81.83
71043;BME280;58696;52.134;5.500;2022-11-15T13:06:48;100410.75;;;11.93;81.66
71043;BME280;58696;52.134;5.500;2022-11-15T13:11:56;100402.88;;;11.96;82.28
71043;BME280;58696;52.134;5.500;2022-11-15T13:14:43;100402.03;;;11.99;81.81
71043;BME280;58696;52.134;5.500;2022-11-15T13:22:52;100390.66;;;11.95;82.42
71043;BME280;58696;52.134;5.500;2022-11-15T13:28:21;100386.28;;;11.92;81.98
71043;BME280;58696;52.134;5.500;2022-11-15T13:30:57;100381.03;;;11.88;81.94
71043;BME280;58696;52.134;5.500;2022-11-15T13:33:31;100383.63;;;11.80;81.89
71043;BME280;58696;52.134;5.500;2022-11-15T13:36:06;100381.88;;;11.76;81.66
71043;BME280;58696;52.134;5.500;2022-11-15T13:38:37;100367.84;;;11.64;81.19
71043;BME280;58696;52.134;5.500;2022-11-15T13:41:24;100365.19;;;11.52;81.65
71043;BME280;58696;52.134;5.500;2022-11-15T13:43:55;100365.16;;;11.45;80.76
71043;BME280;58696;52.134;5.500;2022-11-15T13:46:26;100359.00;;;11.37;81.43
71043;BME280;58696;52.134;5.500;2022-11-15T13:48:58;100350.22;;;11.29;81.51
71043;BME280;58696;52.134;5.500;2022-11-15T13:54:29;100340.56;;;11.18;81.35
71043;BME280;58696;52.134;5.500;2022-11-15T13:57:10;100344.03;;;11.14;81.47
71043;BME280;58696;52.134;5.500;2022-11-15T13:59:52;100340.53;;;11.09;81.45
71043;BME280;58696;52.134;5.500;2022-11-15T14:02:30;100332.66;;;11.06;82.00
71043;BME280;58696;52.134;5.500;2022-11-15T14:05:03;100337.84;;;11.03;81.95
71043;BME280;58696;52.134;5.500;2022-11-15T14:07:32;100327.41;;;11.03;82.16
71043;BME280;58696;52.134;5.500;2022-11-15T14:10:30;100329.16;;;11.01;82.35
71043;BME280;58696;52.134;5.500;2022-11-15T14:12:58;100329.97;;;10.98;82.31
71043;BME280;58696;52.134;5.500;2022-11-15T14:15:34;100318.66;;;10.96;82.14
71043;BME280;58696;52.134;5.500;2022-11-15T14:18:02;100322.97;;;10.94;82.45
71043;BME280;58696;52.134;5.500;2022-11-15T14:20:38;100321.22;;;10.91;82.68
71043;BME280;58696;52.134;5.500;2022-11-15T14:23:19;100318.56;;;10.88;82.38
71043;BME280;58696;52.134;5.500;2022-11-15T14:25:57;100315.94;;;10.87;82.62
71043;BME280;58696;52.134;5.500;2022-11-15T14:30:55;100295.03;;;10.82;83.44
71043;BME280;58696;52.134;5.500;2022-11-15T14:36:03;100292.44;;;10.84;83.85
71043;BME280;58696;52.134;5.500;2022-11-15T14:38:32;100289.78;;;10.80;83.77
71043;BME280;58696;52.134;5.500;2022-11-15T14:40:59;100281.06;;;10.81;83.76
71043;BME280;58696;52.134;5.500;2022-11-15T14:43:26;100281.09;;;10.83;83.64
71043;BME280;58696;52.134;5.500;2022-11-15T14:45:53;100269.72;;;10.81;83.77
71043;BME280;58696;52.134;5.500;2022-11-15T14:48:22;100267.13;;;10.83;83.74
71043;BME280;58696;52.134;5.500;2022-11-15T14:50:49;100269.75;;;10.84;83.95
71043;BME280;58696;52.134;5.500;2022-11-15T14:53:17;100260.16;;;10.81;84.04
71043;BME280;58696;52.134;5.500;2022-11-15T14:55:44;100247.09;;;10.83;83.75
71043;BME280;58696;52.134;5.500;2022-11-15T14:58:11;100253.22;;;10.84;83.97
71043;BME280;58696;52.134;5.500;2022-11-15T15:00:40;100253.22;;;10.85;83.39
71043;BME280;58696;52.134;5.500;2022-11-15T15:03:08;100241.84;;;10.81;83.38
71043;BME280;58696;52.134;5.500;2022-11-15T15:05:42;100240.13;;;10.82;83.41
71043;BME280;58696;52.134;5.500;2022-11-15T15:08:16;100237.50;;;10.80;83.60
71043;BME280;58696;52.134;5.500;2022-11-15T15:10:45;100233.13;;;10.81;83.57
71043;BME280;58696;52.134;5.500;2022-11-15T15:13:20;100231.38;;;10.80;83.80
71043;BME280;58696;52.134;5.500;2022-11-15T15:15:51;100220.09;;;10.79;83.36
71043;BME280;58696;52.134;5.500;2022-11-15T15:18:38;100212.19;;;10.75;83.58
71043;BME280;58696;52.134;5.500;2022-11-15T15:21:18;100209.59;;;10.75;83.11
71043;BME280;58696;52.134;5.500;2022-11-15T15:23:49;100206.97;;;10.75;83.25